Time;durP1;ratioP1;P1;durP2;ratioP2;P2;SDS_P1;SDS_P2;PMS_P1;PMS_P2;Temp;Humidity;BMP_temperature;BMP_pressure;BME280_temperature;BME280_humidity;BME280_pressure;Samples;Min_cycle;Max_cycle;Signal;HPM_P1;HPM_P2
2021/05/15 00:00:18;;;;;;;;;;;;;;;12.68;57.91;95812.67;1724278;81;20260;-56
2021/05/15 00:02:44;;;;;;;;;;;;;;;12.65;57.43;95806.44;1723615;81;20548;-57
2021/05/15 00:05:10;;;;;;;;;;;;;;;12.64;57.43;95812.59;1728304;81;20543;-58
2021/05/15 00:07:36;;;;;;;;;;;;;;;12.60;57.61;95817.76;1724109;81;21107;-58
2021/05/15 00:10:04;;;;;;;;;;;;;;;12.60;57.86;95815.16;1725891;81;20253;-57
2021/05/15 00:12:32;;;;;;;;;;;;;;;12.59;58.05;95819.20;1682869;83;20239;-57
2021/05/15 00:15:00;;;;;;;;;;;;;;;12.58;58.40;95824.05;1723971;81;20246;-57
2021/05/15 00:17:26;;;;;;;;;;;;;;;12.57;58.44;95819.82;1716500;81;20293;-58
2021/05/15 00:19:53;;;;;;;;;;;;;;;12.55;58.63;95829.06;1719399;81;21078;-58
2021/05/15 00:22:19;;;;;;;;;;;;;;;12.50;58.77;95826.88;1728559;81;20347;-57
2021/05/15 00:24:47;;;;;;;;;;;;;;;12.45;58.69;95829.08;1725654;81;20554;-57
2021/05/15 00:27:14;;;;;;;;;;;;;;;12.40;58.63;95830.44;1726938;81;20250;-58
2021/05/15 00:29:41;;;;;;;;;;;;;;;12.33;58.83;95828.87;1710596;81;20234;-58
2021/05/15 00:32:07;;;;;;;;;;;;;;;12.28;59.21;95832.36;1682597;83;21054;-58
2021/05/15 00:34:33;;;;;;;;;;;;;;;12.26;59.34;95835.59;1712068;82;20566;-57
2021/05/15 00:36:59;;;;;;;;;;;;;;;12.23;59.20;95830.16;1709711;82;20213;-56
2021/05/15 00:39:27;;;;;;;;;;;;;;;12.19;59.69;95837.91;1711300;82;20249;-57
2021/05/15 00:41:54;;;;;;;;;;;;;;;12.14;59.63;95838.81;1718680;82;20553;-56
2021/05/15 00:46:53;;;;;;;;;;;;;;;12.10;59.63;95838.72;1714025;82;20268;-57
2021/05/15 00:49:20;;;;;;;;;;;;;;;12.08;59.75;95836.74;1708180;82;20209;-57
2021/05/15 00:51:46;;;;;;;;;;;;;;;12.07;59.93;95845.48;1716758;82;20247;-57
2021/05/15 00:54:12;;;;;;;;;;;;;;;12.07;59.83;95845.48;1720248;82;20285;-58
2021/05/15 00:56:39;;;;;;;;;;;;;;;12.05;60.05;95845.63;1715038;82;21671;-58
2021/05/15 00:59:05;;;;;;;;;;;;;;;12.04;60.16;95847.90;1711965;82;20211;-59
2021/05/15 01:01:32;;;;;;;;;;;;;;;12.04;60.01;95850.95;1713506;82;20262;-58
2021/05/15 01:03:58;;;;;;;;;;;;;;;12.02;60.02;95860.67;1719398;82;20530;-58
2021/05/15 01:06:24;;;;;;;;;;;;;;;12.01;60.04;95861.16;1722989;82;20554;-57
2021/05/15 01:08:51;;;;;;;;;;;;;;;11.99;60.06;95860.94;1715189;82;21072;-58
2021/05/15 01:11:19;;;;;;;;;;;;;;;11.99;60.33;95859.64;1704360;82;20589;-57
2021/05/15 01:14:00;;;;;;;;;;;;;;;12.00;60.56;95863.90;1716368;81;20585;-59
2021/05/15 01:16:26;;;;;;;;;;;;;;;12.00;60.43;95865.20;1728182;81;20220;-58
2021/05/15 01:18:53;;;;;;;;;;;;;;;12.00;60.53;95858.70;1721049;81;20235;-55
2021/05/15 01:21:20;;;;;;;;;;;;;;;11.96;60.63;95860.27;1739242;81;20976;-57
2021/05/15 01:23:47;;;;;;;;;;;;;;;11.91;60.69;95859.84;1734933;81;20592;-57
2021/05/15 01:26:15;;;;;;;;;;;;;;;11.86;60.76;95858.56;1734284;81;20229;-57
2021/05/15 01:28:42;;;;;;;;;;;;;;;11.82;60.95;95859.31;1728490;81;20261;-57
2021/05/15 01:31:11;;;;;;;;;;;;;;;11.78;60.93;95859.25;1736889;81;20217;-57
2021/05/15 01:33:37;;;;;;;;;;;;;;;11.71;61.13;95854.22;1725671;80;21668;-57
2021/05/15 01:36:07;;;;;;;;;;;;;;;11.65;61.24;95857.38;1723564;81;20296;-57
2021/05/15 01:38:34;;;;;;;;;;;;;;;11.54;61.47;95857.80;1722775;81;20214;-56
2021/05/15 01:41:08;;;;;;;;;;;;;;;11.46;61.76;95866.73;1722238;82;20271;-57
2021/05/15 01:43:34;;;;;;;;;;;;;;;11.38;61.92;95867.41;1725932;82;20540;-56
2021/05/15 01:46:01;;;;;;;;;;;;;;;11.35;62.14;95874.16;1716357;82;21690;-56
2021/05/15 01:48:28;;;;;;;;;;;;;;;11.36;62.30;95869.77;1719078;82;20626;-56
2021/05/15 01:50:59;;;;;;;;;;;;;;;11.36;62.46;95876.27;1722336;82;20266;-53
2021/05/15 01:53:27;;;;;;;;;;;;;;;11.32;62.38;95877.01;1716678;82;20769;-56
2021/05/15 01:55:53;;;;;;;;;;;;;;;11.23;62.49;95881.67;1724166;82;20234;-56
2021/05/15 01:58:20;;;;;;;;;;;;;;;11.18;62.63;95880.78;1717432;82;21656;-57
2021/05/15 02:00:46;;;;;;;;;;;;;;;11.13;62.79;95875.13;1719941;82;20597;-56
2021/05/15 02:03:12;;;;;;;;;;;;;;;11.11;62.82;95877.53;1718393;82;20224;-55
2021/05/15 02:05:39;;;;;;;;;;;;;;;11.07;63.00;95880.02;1726112;81;20233;-58
2021/05/15 02:08:05;;;;;;;;;;;;;;;10.99;63.08;95875.00;1718682;82;20204;-57
2021/05/15 02:10:31;;;;;;;;;;;;;;;10.97;63.22;95879.97;1718361;82;21080;-57
2021/05/15 02:12:58;;;;;;;;;;;;;;;10.93;63.34;95881.19;1721704;81;20735;-57
2021/05/15 02:15:24;;;;;;;;;;;;;;;10.89;63.46;95881.92;1726931;81;20246;-58
2021/05/15 02:17:50;;;;;;;;;;;;;;;10.86;63.50;95879.58;1716442;81;20216;-56
2021/05/15 02:20:16;;;;;;;;;;;;;;;10.81;63.67;95876.06;1728311;81;20377;-57
2021/05/15 02:22:43;;;;;;;;;;;;;;;10.80;63.84;95874.41;1717369;81;21127;-56
2021/05/15 02:25:09;;;;;;;;;;;;;;;10.82;64.02;95872.98;1731604;81;20254;-57
2021/05/15 02:27:36;;;;;;;;;;;;;;;10.83;64.17;95878.05;1726533;81;20225;-56
2021/05/15 02:30:03;;;;;;;;;;;;;;;10.87;64.08;95882.50;1727238;81;20230;-57
2021/05/15 02:32:29;;;;;;;;;;;;;;;10.90;63.89;95879.66;1726633;81;20560;-57
2021/05/15 02:34:56;;;;;;;;;;;;;;;10.98;63.94;95881.62;1723426;81;21052;-56
2021/05/15 02:37:22;;;;;;;;;;;;;;;11.08;63.78;95883.78;1720220;82;20262;-56
2021/05/15 02:39:48;;;;;;;;;;;;;;;11.17;63.68;95888.70;1716231;82;20253;-57
2021/05/15 02:42:15;;;;;;;;;;;;;;;11.26;63.34;95884.50;1728141;81;20220;-57
2021/05/15 02:44:42;;;;;;;;;;;;;;;11.32;63.24;95890.48;1729877;81;20234;-57
2021/05/15 02:47:09;;;;;;;;;;;;;;;11.40;63.08;95891.95;1718714;81;21149;-55
2021/05/15 02:49:37;;;;;;;;;;;;;;;11.46;63.11;95891.41;1747577;80;20224;-54
2021/05/15 02:52:03;;;;;;;;;;;;;;;11.53;62.91;95894.30;1723697;81;20234;-57
2021/05/15 02:54:31;;;;;;;;;;;;;;;11.57;62.84;95897.81;1720422;81;20901;-57
2021/05/15 02:56:57;;;;;;;;;;;;;;;11.62;62.61;95896.61;1718027;82;20552;-56
2021/05/15 02:59:24;;;;;;;;;;;;;;;11.65;62.15;95904.14;1729314;81;21086;-55
2021/05/15 03:01:51;;;;;;;;;;;;;;;11.67;62.14;95909.54;1718199;82;20262;-57
2021/05/15 03:04:17;;;;;;;;;;;;;;;11.69;61.51;95908.92;1709566;82;20255;-56
2021/05/15 03:06:43;;;;;;;;;;;;;;;11.71;61.78;95912.69;1718285;81;20230;-57
2021/05/15 03:09:10;;;;;;;;;;;;;;;11.78;61.75;95915.13;1713764;82;20274;-56
2021/05/15 03:11:40;;;;;;;;;;;;;;;11.86;61.49;95915.74;1713521;81;20552;-55
2021/05/15 03:14:09;;;;;;;;;;;;;;;11.93;61.41;95916.42;1728478;81;20593;-56
2021/05/15 03:16:35;;;;;;;;;;;;;;;11.99;60.52;95915.08;1722007;81;20263;-56
2021/05/15 03:19:02;;;;;;;;;;;;;;;12.01;60.78;95914.46;1715259;81;20256;-56
2021/05/15 03:21:29;;;;;;;;;;;;;;;12.03;60.56;95913.84;1722037;81;20252;-56
2021/05/15 03:23:56;;;;;;;;;;;;;;;12.06;60.45;95917.97;1715271;81;21886;-56
2021/05/15 03:26:23;;;;;;;;;;;;;;;12.07;60.47;95924.34;1728718;81;20539;-55
2021/05/15 03:28:49;;;;;;;;;;;;;;;12.12;60.67;95931.72;1717804;81;20264;-56
2021/05/15 03:31:15;;;;;;;;;;;;;;;12.17;60.63;95926.95;1730368;81;20218;-56
2021/05/15 03:33:42;;;;;;;;;;;;;;;12.23;61.03;95927.70;1732873;81;20591;-56
2021/05/15 03:36:08;;;;;;;;;;;;;;;12.29;59.94;95932.86;1727028;81;22212;-56
2021/05/15 03:38:35;;;;;;;;;;;;;;;12.31;60.20;95934.84;1729678;81;20239;-56
2021/05/15 03:41:01;;;;;;;;;;;;;;;12.36;60.06;95933.95;1728364;81;20266;-56
2021/05/15 03:43:27;;;;;;;;;;;;;;;12.40;60.35;95935.34;1727185;81;20234;-56
2021/05/15 03:45:55;;;;;;;;;;;;;;;12.45;60.33;95940.95;1723550;81;20203;-56
2021/05/15 03:48:22;;;;;;;;;;;;;;;12.52;60.33;95938.63;1733184;81;20616;-56
2021/05/15 03:50:49;;;;;;;;;;;;;;;12.59;60.38;95938.91;1721080;81;20210;-56
2021/05/15 03:53:17;;;;;;;;;;;;;;;12.66;60.48;95942.13;1717601;81;20232;-56
2021/05/15 03:55:45;;;;;;;;;;;;;;;12.73;60.63;95941.56;1728378;81;21547;-56
2021/05/15 03:58:11;;;;;;;;;;;;;;;12.79;60.76;95939.72;1722029;81;20552;-56
2021/05/15 04:00:38;;;;;;;;;;;;;;;12.83;60.91;95945.01;1733039;81;21086;-56
2021/05/15 04:03:04;;;;;;;;;;;;;;;12.86;60.88;95944.24;1728877;81;20239;-57
2021/05/15 04:05:31;;;;;;;;;;;;;;;12.88;60.50;95951.43;1729934;81;20254;-56
2021/05/15 04:07:57;;;;;;;;;;;;;;;12.91;60.29;95956.86;1731684;81;20207;-55
2021/05/15 04:10:24;;;;;;;;;;;;;;;12.93;60.39;95955.38;1723660;81;20591;-56
2021/05/15 04:13:03;;;;;;;;;;;;;;;12.96;60.86;95962.92;1729742;81;21062;-56
2021/05/15 04:17:54;;;;;;;;;;;;;;;12.98;61.17;95974.86;1703950;81;20530;-56
2021/05/15 04:20:20;;;;;;;;;;;;;;;12.98;61.30;95976.16;1730340;81;20247;-55
2021/05/15 04:22:46;;;;;;;;;;;;;;;13.00;61.61;95975.53;1734089;81;20242;-54
2021/05/15 04:25:13;;;;;;;;;;;;;;;13.03;61.45;95979.17;1732995;81;21110;-56
2021/05/15 04:27:40;;;;;;;;;;;;;;;13.04;61.21;95980.83;1720628;81;20552;-57
2021/05/15 04:30:09;;;;;;;;;;;;;;;13.10;61.56;95986.44;1731337;81;20222;-55
2021/05/15 04:32:35;;;;;;;;;;;;;;;13.12;61.70;95980.11;1723967;81;20215;-58
2021/05/15 04:35:02;;;;;;;;;;;;;;;13.17;62.10;95990.12;1730508;81;20583;-55
2021/05/15 04:37:28;;;;;;;;;;;;;;;13.20;62.19;95980.23;1723441;81;21050;-55
2021/05/15 04:39:55;;;;;;;;;;;;;;;13.26;61.51;95984.09;1735238;81;20558;-55
2021/05/15 04:42:21;;;;;;;;;;;;;;;13.26;61.03;95979.69;1732119;81;20581;-54
2021/05/15 04:44:48;;;;;;;;;;;;;;;13.11;61.56;95979.79;1736594;81;20226;-55
2021/05/15 04:47:14;;;;;;;;;;;;;;;12.93;61.82;95982.27;1726862;81;20257;-55
2021/05/15 04:49:40;;;;;;;;;;;;;;;12.77;62.17;95989.31;1734800;81;20609;-56
2021/05/15 04:52:07;;;;;;;;;;;;;;;12.62;62.60;95988.89;1749540;80;20246;-56
2021/05/15 04:54:33;;;;;;;;;;;;;;;12.51;62.62;95997.63;1724281;81;20222;-54
2021/05/15 04:56:59;;;;;;;;;;;;;;;12.42;63.06;96001.55;1732385;81;20212;-57
2021/05/15 04:59:26;;;;;;;;;;;;;;;12.39;63.46;96012.22;1727953;81;20545;-56
2021/05/15 05:01:52;;;;;;;;;;;;;;;12.41;64.01;96015.02;1727742;81;21828;-59
2021/05/15 05:04:19;;;;;;;;;;;;;;;12.47;64.66;96017.09;1715484;81;20224;-57
2021/05/15 05:06:46;;;;;;;;;;;;;;;12.57;64.82;96017.59;1724429;81;20244;-55
2021/05/15 05:09:14;;;;;;;;;;;;;;;12.67;64.90;96018.42;1730376;81;20224;-55
2021/05/15 05:11:40;;;;;;;;;;;;;;;12.76;64.65;96014.17;1728219;81;21229;-55
2021/05/15 05:14:06;;;;;;;;;;;;;;;12.83;64.61;96008.79;1727548;81;21066;-57
2021/05/15 05:16:34;;;;;;;;;;;;;;;12.87;63.79;96014.05;1729280;81;20262;-56
2021/05/15 05:19:00;;;;;;;;;;;;;;;12.89;63.33;96015.58;1718989;81;20240;-55
2021/05/15 05:21:28;;;;;;;;;;;;;;;12.93;63.47;96017.42;1729902;81;20224;-56
2021/05/15 05:23:54;;;;;;;;;;;;;;;12.96;62.12;96017.15;1736720;80;20227;-56
2021/05/15 05:26:20;;;;;;;;;;;;;;;12.96;61.57;96020.21;1731486;81;21180;-56
2021/05/15 05:28:50;;;;;;;;;;;;;;;12.89;61.23;96016.88;1725817;81;20150;-53
2021/05/15 05:31:15;;;;;;;;;;;;;;;12.82;61.66;96018.84;1726580;81;20219;-57
2021/05/15 05:33:42;;;;;;;;;;;;;;;12.79;61.88;96026.92;1741041;81;20246;-56
2021/05/15 05:36:08;;;;;;;;;;;;;;;12.80;62.08;96027.28;1723104;81;20541;-57
2021/05/15 05:38:35;;;;;;;;;;;;;;;12.84;62.02;96032.55;1734455;81;21002;-56
2021/05/15 05:41:01;;;;;;;;;;;;;;;12.86;62.16;96033.22;1738334;81;20269;-56
2021/05/15 05:43:28;;;;;;;;;;;;;;;12.92;62.49;96030.57;1729898;81;20464;-57
2021/05/15 05:45:54;;;;;;;;;;;;;;;12.98;62.11;96036.55;1730360;81;20226;-56
2021/05/15 05:48:21;;;;;;;;;;;;;;;13.00;62.28;96034.62;1722892;81;20232;-55
2021/05/15 05:50:49;;;;;;;;;;;;;;;13.04;61.96;96038.58;1725718;81;21031;-57
2021/05/15 05:53:15;;;;;;;;;;;;;;;13.09;61.98;96041.59;1722507;81;20217;-55
2021/05/15 05:55:41;;;;;;;;;;;;;;;13.22;62.30;96048.67;1723623;81;20582;-56
2021/05/15 05:58:08;;;;;;;;;;;;;;;13.37;62.90;96043.89;1717063;81;20221;-56
2021/05/15 06:00:34;;;;;;;;;;;;;;;13.51;63.03;96052.23;1731738;81;20237;-56
2021/05/15 06:03:01;;;;;;;;;;;;;;;13.58;62.47;96052.82;1741937;81;21080;-56
2021/05/15 06:05:29;;;;;;;;;;;;;;;13.69;62.60;96058.86;1728641;81;20342;-56
2021/05/15 06:08:07;;;;;;;;;;;;;;;13.80;62.47;96060.00;1726902;81;20210;-56
2021/05/15 06:10:36;;;;;;;;;;;;;;;13.98;62.42;96061.40;1721617;81;20224;-55
2021/05/15 06:13:06;;;;;;;;;;;;;;;14.23;62.37;96064.33;1731037;81;20581;-56
2021/05/15 06:15:33;;;;;;;;;;;;;;;14.51;62.06;96064.66;1723353;81;22205;-56
2021/05/15 06:18:01;;;;;;;;;;;;;;;14.81;61.46;96061.42;1724991;81;20217;-54
2021/05/15 06:20:28;;;;;;;;;;;;;;;15.11;60.74;96063.84;1727329;81;20556;-56
2021/05/15 06:22:54;;;;;;;;;;;;;;;15.32;59.52;96063.53;1736530;81;20240;-56
2021/05/15 06:25:21;;;;;;;;;;;;;;;15.44;59.07;96064.93;1725235;81;21229;-55
2021/05/15 06:27:47;;;;;;;;;;;;;;;15.49;58.98;96065.78;1736124;81;21001;-57
2021/05/15 06:30:14;;;;;;;;;;;;;;;15.53;58.66;96069.75;1731804;81;20238;-56
2021/05/15 06:32:41;;;;;;;;;;;;;;;15.55;58.52;96072.53;1725584;81;20258;-56
2021/05/15 06:35:09;;;;;;;;;;;;;;;15.59;58.22;96075.66;1728571;81;20283;-56
2021/05/15 06:37:36;;;;;;;;;;;;;;;15.63;58.19;96080.44;1725261;81;20225;-56
2021/05/15 06:40:04;;;;;;;;;;;;;;;15.65;58.33;96086.33;1724026;81;21080;-56
2021/05/15 06:42:30;;;;;;;;;;;;;;;15.64;57.96;96089.09;1723923;81;20152;-55
2021/05/15 06:44:56;;;;;;;;;;;;;;;15.61;57.85;96088.94;1732649;81;20228;-56
2021/05/15 06:47:23;;;;;;;;;;;;;;;15.59;56.66;96092.66;1733311;81;20226;-56
2021/05/15 06:49:49;;;;;;;;;;;;;;;15.51;56.16;96093.90;1721394;81;20576;-56
2021/05/15 06:52:18;;;;;;;;;;;;;;;15.46;56.11;96094.38;1712441;81;21012;-54
2021/05/15 06:54:45;;;;;;;;;;;;;;;15.39;56.19;96092.82;1730760;81;20242;-54
2021/05/15 06:57:12;;;;;;;;;;;;;;;15.37;56.18;96097.88;1722173;81;20225;-55
2021/05/15 06:59:39;;;;;;;;;;;;;;;15.35;55.92;96095.41;1723621;81;20340;-55
2021/05/15 07:02:05;;;;;;;;;;;;;;;15.35;56.35;96094.61;1725491;81;21295;-57
2021/05/15 07:04:32;;;;;;;;;;;;;;;15.33;56.68;96094.75;1717684;82;21694;-56
2021/05/15 07:06:58;;;;;;;;;;;;;;;15.34;56.40;96092.95;1737220;81;20226;-56
2021/05/15 07:09:25;;;;;;;;;;;;;;;15.38;56.64;96090.39;1720803;81;20211;-57
2021/05/15 07:11:52;;;;;;;;;;;;;;;15.48;56.67;96092.89;1726028;81;20238;-55
2021/05/15 07:14:19;;;;;;;;;;;;;;;15.58;56.66;96094.46;1719439;81;20242;-56
2021/05/15 07:16:47;;;;;;;;;;;;;;;15.72;56.71;96094.39;1727971;81;20138;-56
2021/05/15 07:19:15;;;;;;;;;;;;;;;15.88;56.16;96097.64;1726056;81;20213;-55
2021/05/15 07:21:43;;;;;;;;;;;;;;;16.03;55.69;96100.52;1725220;81;20161;-57
2021/05/15 07:24:09;;;;;;;;;;;;;;;16.20;55.36;96100.15;1737960;81;20583;-57
2021/05/15 07:26:36;;;;;;;;;;;;;;;16.38;54.41;96099.58;1735560;81;20232;-56
2021/05/15 07:29:03;;;;;;;;;;;;;;;16.60;53.79;96094.77;1732048;81;21846;-55
2021/05/15 07:31:30;;;;;;;;;;;;;;;16.92;53.35;96092.77;1728619;81;20171;-56
2021/05/15 07:33:57;;;;;;;;;;;;;;;17.24;52.75;96100.36;1717754;81;20256;-56
2021/05/15 07:36:24;;;;;;;;;;;;;;;17.54;50.84;96087.59;1701244;81;20252;-56
2021/05/15 07:38:50;;;;;;;;;;;;;;;17.81;50.27;96096.11;1727244;81;20564;-56
2021/05/15 07:41:22;;;;;;;;;;;;;;;18.15;49.61;96090.67;1726667;81;22246;-55
2021/05/15 07:43:48;;;;;;;;;;;;;;;18.54;48.80;96096.47;1732916;81;20263;-56
2021/05/15 07:46:15;;;;;;;;;;;;;;;19.03;47.03;96091.98;1726412;81;20236;-55
2021/05/15 07:48:42;;;;;;;;;;;;;;;19.39;46.73;96086.17;1734718;81;20257;-57
2021/05/15 07:51:10;;;;;;;;;;;;;;;19.73;44.52;96084.42;1723440;81;20224;-57
2021/05/15 07:53:37;;;;;;;;;;;;;;;19.96;43.36;96081.77;1727453;81;21160;-56
2021/05/15 07:56:04;;;;;;;;;;;;;;;20.14;43.59;96081.42;1732380;81;20561;-57
2021/05/15 07:58:30;;;;;;;;;;;;;;;20.38;43.79;96079.55;1732069;81;20250;-55
2021/05/15 08:00:57;;;;;;;;;;;;;;;20.76;42.84;96078.13;1734447;81;20288;-57
2021/05/15 08:03:24;;;;;;;;;;;;;;;21.26;42.04;96079.06;1727864;81;20285;-55
2021/05/15 08:05:50;;;;;;;;;;;;;;;21.80;41.59;96075.11;1735748;81;21068;-56
2021/05/15 08:08:17;;;;;;;;;;;;;;;22.35;40.48;96073.99;1719580;81;20257;-56
2021/05/15 08:10:43;;;;;;;;;;;;;;;22.82;39.47;96077.36;1733396;81;20216;-55
2021/05/15 08:13:09;;;;;;;;;;;;;;;23.25;37.86;96070.48;1729900;81;20214;-56
2021/05/15 08:15:36;;;;;;;;;;;;;;;23.55;37.21;96076.73;1725787;81;20215;-54
2021/05/15 08:18:03;;;;;;;;;;;;;;;23.70;37.15;96072.88;1734651;81;21048;-54
2021/05/15 08:20:29;;;;;;;;;;;;;;;23.86;36.48;96080.94;1727557;81;20320;-57
2021/05/15 08:22:55;;;;;;;;;;;;;;;24.03;36.43;96083.16;1728760;81;20216;-57
2021/05/15 08:25:22;;;;;;;;;;;;;;;24.37;35.78;96080.77;1723227;81;20277;-55
2021/05/15 08:27:53;;;;;;;;;;;;;;;24.59;35.52;96082.69;1727361;81;20218;-54
2021/05/15 08:30:21;;;;;;;;;;;;;;;24.81;35.70;96087.71;1730650;81;21670;-54
2021/05/15 08:32:54;;;;;;;;;;;;;;;25.04;34.58;96081.08;1734069;81;20223;-56
2021/05/15 08:35:21;;;;;;;;;;;;;;;25.23;34.05;96082.82;1729614;81;20236;-56
2021/05/15 08:37:47;;;;;;;;;;;;;;;25.33;34.13;96083.72;1731083;81;20210;-57
2021/05/15 08:40:14;;;;;;;;;;;;;;;25.32;33.33;96086.86;1720853;81;20223;-56
2021/05/15 08:42:42;;;;;;;;;;;;;;;25.25;33.30;96086.59;1729310;81;21036;-56
2021/05/15 08:45:11;;;;;;;;;;;;;;;25.21;32.90;96089.36;1733497;81;20218;-56
2021/05/15 08:47:40;;;;;;;;;;;;;;;24.67;33.11;96083.47;1716326;81;20149;-55
2021/05/15 08:50:15;;;;;;;;;;;;;;;24.46;34.27;96086.68;1724925;81;20325;-56
2021/05/15 08:52:44;;;;;;;;;;;;;;;24.56;35.01;96090.25;1724853;81;20257;-56
2021/05/15 08:55:12;;;;;;;;;;;;;;;24.88;34.28;96098.30;1733241;81;21108;-56
2021/05/15 08:57:41;;;;;;;;;;;;;;;25.22;33.91;96100.29;1739108;81;20663;-55
2021/05/15 09:00:16;;;;;;;;;;;;;;;25.44;33.37;96100.27;1718972;81;20192;-55
2021/05/15 09:02:44;;;;;;;;;;;;;;;25.52;33.50;96098.68;1718758;82;20250;-56
2021/05/15 09:05:11;;;;;;;;;;;;;;;25.38;32.63;96102.47;1732693;81;20234;-54
2021/05/15 09:07:37;;;;;;;;;;;;;;;25.17;32.76;96102.25;1732447;81;21054;-56
2021/05/15 09:10:05;;;;;;;;;;;;;;;24.89;32.81;96100.73;1728758;81;20214;-56
2021/05/15 09:12:32;;;;;;;;;;;;;;;24.64;32.62;96094.49;1725083;81;20291;-57
2021/05/15 09:15:05;;;;;;;;;;;;;;;24.41;32.87;96088.63;1723942;81;20208;-56
2021/05/15 09:17:47;;;;;;;;;;;;;;;24.16;33.71;96095.10;1732779;81;20571;-55
2021/05/15 09:20:26;;;;;;;;;;;;;;;23.91;33.80;96102.04;1725719;81;21103;-55
2021/05/15 09:22:52;;;;;;;;;;;;;;;23.61;34.12;96097.91;1728126;81;20559;-56
2021/05/15 09:25:18;;;;;;;;;;;;;;;23.32;34.61;96103.89;1726940;81;20260;-57
2021/05/15 09:27:45;;;;;;;;;;;;;;;23.08;34.65;96101.80;1734412;81;20233;-56
2021/05/15 09:30:12;;;;;;;;;;;;;;;22.85;35.62;96107.38;1720921;81;20229;-57
2021/05/15 09:32:39;;;;;;;;;;;;;;;22.62;36.18;96106.36;1724185;81;21657;-56
2021/05/15 09:35:06;;;;;;;;;;;;;;;22.40;36.31;96101.97;1723547;81;20222;-56
2021/05/15 09:37:39;;;;;;;;;;;;;;;22.22;36.39;96098.48;1721352;81;20232;-56
2021/05/15 09:40:18;;;;;;;;;;;;;;;22.10;36.82;96101.84;1735507;81;20226;-55
2021/05/15 09:42:54;;;;;;;;;;;;;;;22.08;37.83;96105.19;1732997;81;20246;-55
2021/05/15 09:45:29;;;;;;;;;;;;;;;22.11;38.41;96102.16;1731631;81;21152;-55
2021/05/15 09:48:01;;;;;;;;;;;;;;;22.23;38.07;96104.05;1729370;81;20210;-58
2021/05/15 09:50:29;;;;;;;;;;;;;;;22.30;38.09;96098.03;1731182;81;20246;-58
2021/05/15 09:53:04;;;;;;;;;;;;;;;22.32;37.91;96098.16;1725726;81;20481;-58
2021/05/15 09:55:32;;;;;;;;;;;;;;;22.32;37.21;96094.20;1728980;81;20218;-58
2021/05/15 09:58:01;;;;;;;;;;;;;;;22.20;37.63;96092.58;1728381;81;21110;-59
2021/05/15 10:00:28;;;;;;;;;;;;;;;22.23;37.45;96096.13;1732329;81;20569;-59
2021/05/15 10:02:55;;;;;;;;;;;;;;;22.39;37.75;96095.04;1726177;81;20220;-59
2021/05/15 10:05:23;;;;;;;;;;;;;;;22.67;37.44;96096.01;1726697;81;20248;-59
2021/05/15 10:07:51;;;;;;;;;;;;;;;22.93;37.64;96097.44;1728736;81;20206;-59
2021/05/15 10:10:20;;;;;;;;;;;;;;;23.20;37.37;96088.28;1703268;82;20270;-59
2021/05/15 10:12:46;;;;;;;;;;;;;;;23.22;36.44;96091.53;1723998;81;20222;-59
2021/05/15 10:15:14;;;;;;;;;;;;;;;22.91;37.32;96086.73;1716429;81;20222;-59
2021/05/15 10:17:40;;;;;;;;;;;;;;;22.79;37.20;96093.09;1731002;81;20588;-59
2021/05/15 10:20:09;;;;;;;;;;;;;;;22.68;37.51;96097.63;1726297;81;20260;-59
2021/05/15 10:22:39;;;;;;;;;;;;;;;22.54;37.25;96094.11;1749929;81;21129;-53
2021/05/15 10:25:14;;;;;;;;;;;;;;;22.43;37.89;96094.14;1736700;81;20230;-55
2021/05/15 10:27:41;;;;;;;;;;;;;;;22.37;38.97;96090.98;1731273;81;20568;-65
2021/05/15 10:30:18;;;;;;;;;;;;;;;22.41;38.23;96096.17;1722337;81;20216;-66
2021/05/15 10:32:54;;;;;;;;;;;;;;;22.53;38.79;96093.79;1726861;81;20212;-63
2021/05/15 10:35:37;;;;;;;;;;;;;;;22.66;38.31;96085.92;1731786;81;21065;-61
2021/05/15 10:38:10;;;;;;;;;;;;;;;22.81;38.31;96084.97;1713733;81;20220;-63
2021/05/15 10:40:48;;;;;;;;;;;;;;;22.92;37.40;96084.41;1733350;81;20231;-61
2021/05/15 10:43:15;;;;;;;;;;;;;;;22.94;37.73;96088.50;1742776;81;20227;-59
2021/05/15 10:45:43;;;;;;;;;;;;;;;23.02;37.70;96090.64;1730958;81;20271;-62
2021/05/15 10:48:24;;;;;;;;;;;;;;;23.09;37.32;96080.92;1731646;81;21020;-66
